CheckWX is a tool to help pilots better visualize weather data.  It is not intended as a substitute for an official pre-flight weather briefing.

20:06:45 UTC

KACK METAR
Nantucket Memorial Airport
Nantucket, Massachusetts, USA
Current

14 mins ago

KACK 201953Z 35016G22KT 6SM BR FEW008 OVC014 06/04 A2983 RMK AO2 RAB1857E12B34E53 SLP102 P0001 T00610039
Observed
Nov-20 @ 19:53 UTC
Wind
  • 350° at 16 KTS
  • Gusting to 22 KTS
Visibility
6 SM
Flight Rules
MVFR
Conditions
Mist
Cloud Levels
  • Few at 800' AGL
  • Overcast at 1,400' AGL
Temperature
C / 43°F
Dewpoint
C / 39°F
Humidity
87%
Altimeter
29.83" Hg
Pressure
1010.12 hPa
Current Rain
0.01"
Previous

24 mins ago

KACK 201943Z 35017G23KT 10SM -RA BKN016 BKN020 OVC044 06/04 A2983 RMK AO2 RAB1857E12B34 P0001 T00610039
Observed
Nov-20 @ 19:43 UTC
Wind
  • 350° at 17 KTS
  • Gusting to 23 KTS
Visibility
10 SM
Flight Rules
MVFR
Conditions
Light Rain
Cloud Levels
  • Broken at 1,600' AGL
  • Broken at 2,000' AGL
  • Overcast at 4,400' AGL
Temperature
C / 43°F
Dewpoint
C / 39°F
Humidity
87%
Altimeter
29.83" Hg
Pressure
1010.12 hPa
Current Rain
0.01"
Previous

42 mins ago

KACK 201925Z 35018G23KT 10SM BKN014 BKN020 OVC044 07/04 A2982 RMK AO2 RAB1857E12 P0000 T00720039
Observed
Nov-20 @ 19:25 UTC
Wind
  • 350° at 18 KTS
  • Gusting to 23 KTS
Visibility
10 SM
Flight Rules
MVFR
Cloud Levels
  • Broken at 1,400' AGL
  • Broken at 2,000' AGL
  • Overcast at 4,400' AGL
Temperature
C / 45°F
Dewpoint
C / 39°F
Humidity
81%
Altimeter
29.82" Hg
Pressure
1009.82 hPa
Current Rain
0.01"